Time;durP1;ratioP1;P1;durP2;ratioP2;P2;SDS_P1;SDS_P2;PMS_P1;PMS_P2;Temp;Humidity;BMP_temperature;BMP_pressure;BME280_temperature;BME280_humidity;BME280_pressure;Samples;Min_cycle;Max_cycle;Signal;HPM_P1;HPM_P2
2023/08/18 00:00:00;;;;;;;8.77;5.10;;;22.60;86.30;;;;;;4982965;28;20080;-27
2023/08/18 00:02:27;;;;;;;8.77;5.30;;;22.60;86.40;;;;;;4980868;28;20733;-27
2023/08/18 00:04:52;;;;;;;9.18;4.93;;;22.60;86.50;;;;;;4997387;28;20501;-28
2023/08/18 00:07:18;;;;;;;8.57;5.07;;;22.60;86.60;;;;;;4974163;28;20022;-27
2023/08/18 00:09:44;;;;;;;8.27;5.13;;;22.60;86.70;;;;;;5002075;28;20065;-28
2023/08/18 00:12:10;;;;;;;8.73;5.18;;;22.60;86.70;;;;;;4988347;28;20029;-27
2023/08/18 00:14:36;;;;;;;8.35;5.18;;;22.60;86.80;;;;;;4986942;28;20033;-28
2023/08/18 00:17:02;;;;;;;7.60;5.10;;;22.60;86.80;;;;;;4994006;28;20092;-27
2023/08/18 00:19:29;;;;;;;8.18;4.82;;;22.60;86.90;;;;;;4983586;28;20034;-24
2023/08/18 00:21:54;;;;;;;8.95;5.18;;;22.60;87.00;;;;;;4982495;28;20501;-24
2023/08/18 00:24:20;;;;;;;8.40;5.20;;;22.60;87.00;;;;;;4969078;28;20032;-25
2023/08/18 00:26:46;;;;;;;7.60;4.85;;;22.60;87.00;;;;;;4988708;28;20518;-24
2023/08/18 00:29:12;;;;;;;7.28;4.75;;;22.60;87.00;;;;;;4986132;28;20026;-25
2023/08/18 00:31:38;;;;;;;8.10;5.20;;;22.60;87.10;;;;;;4979171;28;20252;-24
2023/08/18 00:34:04;;;;;;;7.50;5.15;;;22.50;87.00;;;;;;4986750;28;20029;-25
2023/08/18 00:36:31;;;;;;;7.40;4.78;;;22.50;87.20;;;;;;4990292;28;20038;-23
2023/08/18 00:38:58;;;;;;;8.65;5.32;;;22.50;87.30;;;;;;4992259;28;20044;-24
2023/08/18 00:41:24;;;;;;;10.23;5.13;;;22.50;87.40;;;;;;4967742;28;20137;-24
2023/08/18 00:43:50;;;;;;;8.95;5.45;;;22.50;87.50;;;;;;4985731;28;20423;-25
2023/08/18 00:46:18;;;;;;;8.23;5.15;;;22.50;87.50;;;;;;4980375;28;20049;-25
2023/08/18 00:48:44;;;;;;;8.82;5.07;;;22.50;87.70;;;;;;4989544;28;20069;-24
2023/08/18 00:51:11;;;;;;;8.63;5.20;;;22.40;87.50;;;;;;4995622;28;20022;-26
2023/08/18 00:53:39;;;;;;;7.93;5.03;;;22.50;87.70;;;;;;4986488;28;20072;-25
2023/08/18 00:56:06;;;;;;;8.20;4.90;;;22.40;87.60;;;;;;4973318;28;20045;-26
2023/08/18 00:58:33;;;;;;;8.95;5.30;;;22.40;87.60;;;;;;4987886;28;20253;-24
2023/08/18 01:00:59;;;;;;;8.20;5.00;;;22.40;87.60;;;;;;4987873;28;20075;-24
2023/08/18 01:03:25;;;;;;;9.03;5.13;;;22.40;87.70;;;;;;4993222;23;20276;-82
2023/08/18 01:05:51;;;;;;;8.38;5.55;;;22.40;87.70;;;;;;4985990;28;20142;-80
2023/08/18 01:08:17;;;;;;;8.25;4.93;;;22.40;87.80;;;;;;4982842;28;20129;-82
2023/08/18 01:11:35;;;;;;;8.43;5.17;;;22.40;87.80;;;;;;4985045;28;20479;-80
2023/08/18 01:14:35;;;;;;;9.32;5.28;;;22.30;89.00;;;;;;4902287;28;20069;-82
2023/08/18 01:17:10;;;;;;;7.28;4.93;;;22.30;88.80;;;;;;4981739;28;20050;-82
2023/08/18 01:19:37;;;;;;;9.70;4.97;;;22.30;88.30;;;;;;4986093;28;20106;-82
2023/08/18 01:22:06;;;;;;;8.88;5.53;;;22.30;88.00;;;;;;4982328;28;20045;-82
2023/08/18 01:24:32;;;;;;;9.40;4.93;;;22.30;88.00;;;;;;4986483;28;20077;-81
2023/08/18 01:26:57;;;;;;;8.50;5.40;;;22.20;88.00;;;;;;4983231;28;20038;-82
2023/08/18 01:29:24;;;;;;;8.95;5.45;;;22.30;88.20;;;;;;4985283;28;20537;-81
2023/08/18 01:31:54;;;;;;;7.85;5.15;;;22.20;88.30;;;;;;4986443;28;20047;-82
2023/08/18 01:34:23;;;;;;;8.73;5.37;;;22.20;88.60;;;;;;5003658;28;20101;-83
2023/08/18 01:36:51;;;;;;;8.50;5.40;;;22.20;88.60;;;;;;4979426;28;20092;-81
2023/08/18 01:39:20;;;;;;;8.68;5.75;;;22.20;88.80;;;;;;4988534;28;20109;-81
2023/08/18 01:41:46;;;;;;;9.25;6.20;;;22.20;88.80;;;;;;4979326;28;20045;-81
2023/08/18 01:44:16;;;;;;;8.70;5.57;;;22.20;88.60;;;;;;4965469;28;20404;-81
2023/08/18 01:46:42;;;;;;;9.03;5.40;;;22.20;89.10;;;;;;4990667;28;20065;-80
2023/08/18 01:49:08;;;;;;;9.90;6.13;;;22.20;88.80;;;;;;4984513;28;20046;-82
2023/08/18 01:51:34;;;;;;;9.48;6.00;;;22.20;89.00;;;;;;4981400;28;20045;-81
2023/08/18 01:54:00;;;;;;;9.07;5.87;;;22.20;88.90;;;;;;4982575;28;20018;-81
2023/08/18 01:56:26;;;;;;;8.65;5.90;;;22.20;89.00;;;;;;4978149;28;20063;-81
2023/08/18 01:58:51;;;;;;;9.10;5.90;;;22.20;89.10;;;;;;4972963;28;20679;-80
2023/08/18 02:01:17;;;;;;;11.40;6.07;;;22.20;89.10;;;;;;4987455;28;20153;-81
2023/08/18 02:03:43;;;;;;;9.20;6.03;;;22.20;89.30;;;;;;4977756;28;20387;-81
2023/08/18 02:06:09;;;;;;;10.38;6.07;;;22.20;89.30;;;;;;4967792;28;20042;-81
2023/08/18 02:08:35;;;;;;;10.75;5.95;;;22.20;89.40;;;;;;4968891;28;20256;-81
2023/08/18 02:11:04;;;;;;;10.30;6.33;;;22.20;89.40;;;;;;4970397;28;20035;-81
2023/08/18 02:13:31;;;;;;;11.07;6.18;;;22.20;89.50;;;;;;4970388;28;20196;-81
2023/08/18 02:15:57;;;;;;;10.55;6.20;;;22.20;89.50;;;;;;4972367;28;20041;-81
2023/08/18 02:18:23;;;;;;;10.50;6.22;;;22.20;89.50;;;;;;4967120;28;20039;-81
2023/08/18 02:20:58;;;;;;;11.30;6.33;;;22.20;89.60;;;;;;4978091;28;20376;-80
2023/08/18 02:23:24;;;;;;;11.27;6.28;;;22.20;90.10;;;;;;4970489;28;20086;-80
2023/08/18 02:25:50;;;;;;;10.15;6.13;;;22.20;89.60;;;;;;4974177;28;20023;-80
2023/08/18 02:28:18;;;;;;;10.07;6.30;;;22.20;89.70;;;;;;4965169;28;20542;-83
2023/08/18 02:30:44;;;;;;;10.50;6.13;;;22.10;89.70;;;;;;4968900;28;20285;-82
2023/08/18 02:33:10;;;;;;;12.18;6.55;;;22.20;90.00;;;;;;4971137;28;20538;-80
2023/08/18 02:35:36;;;;;;;11.32;6.47;;;22.10;90.00;;;;;;4967246;28;20035;-80
2023/08/18 02:38:02;;;;;;;10.60;6.70;;;22.20;90.00;;;;;;4961909;28;20038;-79
2023/08/18 02:40:27;;;;;;;10.23;6.53;;;22.10;90.00;;;;;;4940929;29;20429;-79
2023/08/18 02:42:53;;;;;;;11.30;6.93;;;22.20;90.10;;;;;;4943546;28;20034;-80
2023/08/18 02:45:19;;;;;;;12.40;6.80;;;22.20;90.10;;;;;;4969343;28;20479;-81
2023/08/18 02:47:44;;;;;;;12.57;7.40;;;22.20;90.10;;;;;;4965394;28;20384;-80
2023/08/18 02:50:10;;;;;;;12.27;7.15;;;22.20;90.10;;;;;;4973706;28;20031;-82
2023/08/18 02:52:36;;;;;;;13.77;7.07;;;22.20;90.10;;;;;;4974339;28;20034;-80
2023/08/18 02:55:02;;;;;;;13.50;7.07;;;22.20;90.10;;;;;;4968459;28;20388;-80
2023/08/18 02:57:28;;;;;;;13.48;7.32;;;22.20;90.10;;;;;;4970209;28;20710;-79
2023/08/18 02:59:54;;;;;;;12.65;6.78;;;22.10;90.10;;;;;;4967602;28;20038;-81
2023/08/18 03:02:20;;;;;;;16.00;7.83;;;22.20;90.10;;;;;;4973497;28;20419;-80
2023/08/18 03:04:46;;;;;;;17.05;8.27;;;22.20;90.10;;;;;;4960242;28;20039;-80
2023/08/18 03:07:11;;;;;;;17.17;8.95;;;22.10;90.10;;;;;;4974492;28;20057;-81
2023/08/18 03:09:37;;;;;;;17.70;8.70;;;22.10;90.10;;;;;;4964665;28;20031;-80
2023/08/18 03:12:03;;;;;;;17.92;8.98;;;22.10;90.10;;;;;;4965857;28;20484;-81
2023/08/18 03:14:29;;;;;;;18.50;8.77;;;22.10;90.10;;;;;;4961446;28;20583;-80
2023/08/18 03:16:55;;;;;;;19.20;9.75;;;22.10;90.10;;;;;;4973443;28;20027;-80
2023/08/18 03:19:20;;;;;;;20.70;10.27;;;22.00;90.20;;;;;;4976635;28;20034;-81
2023/08/18 03:21:46;;;;;;;19.80;9.60;;;22.00;90.20;;;;;;4968251;28;20035;-80
2023/08/18 03:24:13;;;;;;;19.93;10.10;;;22.10;90.20;;;;;;4947265;29;20070;-80
2023/08/18 03:26:38;;;;;;;21.38;10.25;;;22.00;90.20;;;;;;4973907;28;20074;-80
2023/08/18 03:29:04;;;;;;;19.52;9.68;;;22.00;90.20;;;;;;4972185;28;20077;-80
2023/08/18 03:31:30;;;;;;;20.07;9.77;;;22.00;90.20;;;;;;4963684;28;20027;-81
2023/08/18 03:33:56;;;;;;;20.65;10.35;;;22.00;90.20;;;;;;4968664;28;20411;-81
2023/08/18 03:36:21;;;;;;;19.73;9.70;;;22.00;90.30;;;;;;4965624;28;20059;-81
2023/08/18 03:38:47;;;;;;;17.92;9.40;;;22.00;90.30;;;;;;4981372;28;20061;-81
2023/08/18 03:41:13;;;;;;;19.70;9.90;;;21.90;90.30;;;;;;4971592;28;20030;-81
2023/08/18 03:43:38;;;;;;;19.80;9.70;;;21.70;90.60;;;;;;4953769;28;20019;-81
2023/08/18 03:46:28;;;;;;;19.20;9.43;;;22.00;90.40;;;;;;4963184;28;20069;-81
2023/08/18 03:48:54;;;;;;;18.42;9.60;;;22.00;90.80;;;;;;4972042;28;20549;-81
2023/08/18 03:51:20;;;;;;;18.58;9.63;;;21.90;90.40;;;;;;4971512;28;20466;-81
2023/08/18 03:53:46;;;;;;;19.27;9.30;;;21.90;90.70;;;;;;4952723;28;20118;-80
2023/08/18 03:56:12;;;;;;;18.58;8.95;;;21.90;90.40;;;;;;4974482;28;20019;-81
2023/08/18 03:58:38;;;;;;;19.35;9.65;;;21.90;90.40;;;;;;4978043;28;20555;-81
2023/08/18 04:01:06;;;;;;;20.67;9.88;;;21.90;90.40;;;;;;4965175;28;20464;-81
2023/08/18 04:03:35;;;;;;;19.17;9.10;;;21.90;90.50;;;;;;4969941;28;20054;-81
2023/08/18 04:06:01;;;;;;;19.80;9.73;;;21.90;90.50;;;;;;4953181;28;20034;-80
2023/08/18 04:08:27;;;;;;;19.77;9.63;;;21.90;90.50;;;;;;4968389;28;20022;-81
2023/08/18 04:10:52;;;;;;;20.40;10.23;;;21.90;90.50;;;;;;4970867;28;20118;-81
2023/08/18 04:13:18;;;;;;;20.40;10.10;;;21.80;90.50;;;;;;4951608;28;20789;-80
2023/08/18 04:15:45;;;;;;;20.70;10.27;;;21.80;90.50;;;;;;4964329;28;20049;-81
2023/08/18 04:18:11;;;;;;;21.43;10.03;;;21.80;90.60;;;;;;4960612;28;20028;-81
2023/08/18 04:20:36;;;;;;;21.00;10.68;;;21.80;90.50;;;;;;4986070;28;20034;-81
2023/08/18 04:23:02;;;;;;;20.67;10.50;;;21.80;90.50;;;;;;4961637;28;20118;-81
2023/08/18 04:25:28;;;;;;;21.03;10.33;;;21.80;90.50;;;;;;4965130;28;20158;-81
2023/08/18 04:27:54;;;;;;;22.35;10.57;;;21.80;90.60;;;;;;4968392;28;20517;-81
2023/08/18 04:30:19;;;;;;;20.70;10.57;;;21.80;90.60;;;;;;4961143;28;20034;-80
2023/08/18 04:32:45;;;;;;;22.45;10.85;;;21.80;90.60;;;;;;4975213;28;20084;-81
2023/08/18 04:35:11;;;;;;;20.13;9.17;;;21.80;90.60;;;;;;4978022;28;20026;-81
2023/08/18 04:37:36;;;;;;;20.48;10.45;;;21.80;90.70;;;;;;4969383;28;20034;-81
2023/08/18 04:40:04;;;;;;;20.30;10.20;;;21.70;90.70;;;;;;4974436;28;20475;-81
2023/08/18 04:42:30;;;;;;;23.13;10.55;;;21.80;90.70;;;;;;4974443;28;20780;-80
2023/08/18 04:44:56;;;;;;;23.08;10.57;;;21.70;90.70;;;;;;4971155;28;20027;-81
2023/08/18 04:47:22;;;;;;;22.40;11.13;;;21.70;90.70;;;;;;4974655;28;20028;-80
2023/08/18 04:49:47;;;;;;;25.48;10.73;;;21.70;90.70;;;;;;4969299;28;20514;-80
2023/08/18 04:52:14;;;;;;;23.00;10.43;;;21.70;90.60;;;;;;4953920;28;20387;-81
2023/08/18 04:54:40;;;;;;;23.60;10.82;;;21.70;90.70;;;;;;4968569;28;20038;-80
2023/08/18 04:57:07;;;;;;;22.73;10.63;;;21.70;90.70;;;;;;4958878;28;20057;-81
2023/08/18 04:59:33;;;;;;;23.20;9.90;;;21.70;90.70;;;;;;4977025;28;20083;-79
2023/08/18 05:01:59;;;;;;;21.40;10.27;;;21.70;90.80;;;;;;4969487;28;20026;-81
2023/08/18 05:04:25;;;;;;;20.77;9.98;;;21.60;90.70;;;;;;4967725;28;20054;-80
2023/08/18 05:06:51;;;;;;;20.48;9.85;;;21.60;90.70;;;;;;4960843;28;20062;-80
2023/08/18 05:09:18;;;;;;;20.27;10.15;;;21.60;90.80;;;;;;4970608;28;20109;-80
2023/08/18 05:11:43;;;;;;;23.10;10.33;;;21.60;90.80;;;;;;4972569;28;20042;-80
2023/08/18 05:14:09;;;;;;;22.00;9.93;;;21.60;90.80;;;;;;4941233;28;20038;-81
2023/08/18 05:16:35;;;;;;;19.97;9.70;;;21.90;91.50;;;;;;4952428;28;20030;-81
2023/08/18 05:19:01;;;;;;;21.13;10.27;;;21.50;90.80;;;;;;4964512;28;20027;-81
2023/08/18 05:21:27;;;;;;;21.75;9.52;;;21.50;90.80;;;;;;4974456;28;20034;-79
2023/08/18 05:23:52;;;;;;;21.37;10.00;;;21.50;90.80;;;;;;4970616;28;20015;-81
2023/08/18 05:26:18;;;;;;;19.33;9.10;;;21.40;90.80;;;;;;4964702;28;20039;-80
2023/08/18 05:28:44;;;;;;;19.88;9.30;;;21.40;90.90;;;;;;4970619;28;20078;-80
2023/08/18 05:31:11;;;;;;;22.67;10.40;;;21.40;90.90;;;;;;4949009;28;20363;-80
2023/08/18 05:33:37;;;;;;;22.25;10.40;;;21.40;90.90;;;;;;4969339;28;20045;-81
2023/08/18 05:36:07;;;;;;;20.00;9.82;;;21.40;90.90;;;;;;4963915;28;20039;-80
2023/08/18 05:38:33;;;;;;;18.55;9.57;;;21.40;91.00;;;;;;4970352;28;20054;-81
2023/08/18 05:41:07;;;;;;;20.97;9.70;;;21.40;91.00;;;;;;4952713;28;20346;-80
2023/08/18 05:43:37;;;;;;;17.23;8.77;;;21.30;91.30;;;;;;4973891;28;20027;-80
2023/08/18 05:46:04;;;;;;;19.23;9.00;;;21.30;91.10;;;;;;4969130;28;20122;-79
2023/08/18 05:48:32;;;;;;;19.42;9.70;;;21.30;91.10;;;;;;4959902;28;20055;-80
2023/08/18 05:50:58;;;;;;;18.20;9.13;;;21.30;91.10;;;;;;4973273;28;20420;-83
2023/08/18 05:53:24;;;;;;;19.40;8.37;;;21.30;91.20;;;;;;4972431;28;20400;-85
2023/08/18 05:55:50;;;;;;;18.42;9.13;;;21.30;91.20;;;;;;4969861;28;20031;-83
2023/08/18 05:58:16;;;;;;;18.80;9.02;;;21.40;91.20;;;;;;4967421;28;20042;-85
2023/08/18 06:00:42;;;;;;;20.08;9.38;;;21.30;91.20;;;;;;4962912;28;20480;-84
2023/08/18 06:03:08;;;;;;;15.73;7.97;;;21.40;91.20;;;;;;4950987;28;20101;-85
2023/08/18 06:05:34;;;;;;;20.65;10.02;;;21.40;91.20;;;;;;4975004;28;20041;-84
2023/08/18 06:08:00;;;;;;;21.50;9.93;;;21.40;91.20;;;;;;4976704;28;20042;-84
2023/08/18 06:10:26;;;;;;;20.77;10.32;;;21.40;91.20;;;;;;4972889;28;20031;-85
2023/08/18 06:12:52;;;;;;;19.47;9.70;;;21.40;91.30;;;;;;4979162;28;20023;-83
2023/08/18 06:15:19;;;;;;;19.40;9.80;;;21.40;91.30;;;;;;4972786;28;20423;-86
2023/08/18 06:17:45;;;;;;;18.23;8.95;;;21.40;91.30;;;;;;4975657;28;20065;-83
2023/08/18 06:20:12;;;;;;;17.58;9.05;;;21.40;91.30;;;;;;4948817;28;20046;-85
2023/08/18 06:22:37;;;;;;;16.92;9.02;;;21.30;91.40;;;;;;4986100;28;20057;-85
2023/08/18 06:25:07;;;;;;;16.60;8.83;;;21.40;91.40;;;;;;4972947;28;20299;-86
2023/08/18 06:27:33;;;;;;;17.88;8.63;;;21.40;91.80;;;;;;4964124;28;20039;-84
2023/08/18 06:29:59;;;;;;;15.50;8.10;;;21.30;91.40;;;;;;4965111;28;20333;-84
2023/08/18 06:32:25;;;;;;;15.53;7.63;;;21.40;91.30;;;;;;4960022;28;20122;-84
2023/08/18 06:34:51;;;;;;;14.37;7.30;;;21.40;91.40;;;;;;4959741;28;20282;-83
2023/08/18 06:37:18;;;;;;;13.10;6.78;;;21.40;91.40;;;;;;4954916;28;20513;-85
2023/08/18 06:39:44;;;;;;;14.30;6.78;;;21.40;91.50;;;;;;4967588;28;20030;-83
2023/08/18 06:42:09;;;;;;;13.13;6.87;;;21.40;91.40;;;;;;4961719;28;20088;-84
2023/08/18 06:44:36;;;;;;;12.32;6.20;;;21.40;91.50;;;;;;4969026;28;20593;-82
2023/08/18 06:47:01;;;;;;;11.98;6.10;;;21.40;91.50;;;;;;4950664;28;20401;-85
2023/08/18 06:49:27;;;;;;;13.30;6.50;;;21.40;91.50;;;;;;4951042;28;20043;-85
2023/08/18 06:51:53;;;;;;;13.00;6.72;;;21.40;91.50;;;;;;4957658;28;20031;-84
2023/08/18 06:54:19;;;;;;;13.27;6.00;;;21.40;91.50;;;;;;4971828;28;20031;-84
2023/08/18 06:56:45;;;;;;;12.57;6.37;;;21.40;91.60;;;;;;4969920;28;20038;-82
2023/08/18 06:59:14;;;;;;;14.32;7.10;;;21.50;91.60;;;;;;4951073;28;20058;-84
2023/08/18 07:01:40;;;;;;;14.25;7.07;;;21.50;91.60;;;;;;4954795;28;20027;-83
2023/08/18 07:04:06;;;;;;;13.02;6.63;;;21.50;91.50;;;;;;4969608;28;20042;-84
2023/08/18 07:06:33;;;;;;;13.80;6.93;;;21.50;91.60;;;;;;4962352;28;20027;-85
2023/08/18 07:08:59;;;;;;;13.23;6.85;;;21.50;91.60;;;;;;4953625;28;20431;-83
2023/08/18 07:11:25;;;;;;;12.90;6.60;;;21.50;91.70;;;;;;4970375;28;20495;-84
2023/08/18 07:13:50;;;;;;;11.35;5.97;;;21.50;91.70;;;;;;4965310;28;20085;-84
2023/08/18 07:16:16;;;;;;;11.53;5.90;;;21.60;91.70;;;;;;4974830;28;20219;-83
2023/08/18 07:18:42;;;;;;;13.73;7.07;;;21.60;91.70;;;;;;4957977;28;20041;-83
2023/08/18 07:21:08;;;;;;;14.00;7.00;;;21.60;91.70;;;;;;4973605;28;20113;-83
2023/08/18 07:23:33;;;;;;;13.93;7.30;;;21.20;92.30;;;;;;4962897;28;20031;-83
2023/08/18 07:25:59;;;;;;;12.97;6.73;;;21.70;91.70;;;;;;4970522;28;20038;-84
2023/08/18 07:28:25;;;;;;;14.30;7.15;;;21.70;91.70;;;;;;4965496;28;20034;-85
2023/08/18 07:30:51;;;;;;;13.23;7.18;;;21.70;91.70;;;;;;4968683;28;20038;-84
2023/08/18 07:33:17;;;;;;;14.35;7.05;;;21.70;91.70;;;;;;4963562;28;20217;-83
2023/08/18 07:35:43;;;;;;;14.33;6.90;;;21.70;92.00;;;;;;4963848;28;20432;-84
2023/08/18 07:38:09;;;;;;;14.63;7.03;;;21.70;91.70;;;;;;4936144;28;20050;-83
2023/08/18 07:40:35;;;;;;;12.73;6.90;;;21.70;91.70;;;;;;4967627;28;20080;-84
2023/08/18 07:43:01;;;;;;;12.85;6.80;;;21.80;91.80;;;;;;4954714;28;20229;-86
2023/08/18 07:45:26;;;;;;;13.13;6.93;;;21.80;91.70;;;;;;4972411;28;20039;-84
2023/08/18 07:47:53;;;;;;;13.70;6.97;;;21.80;91.70;;;;;;4966642;28;20034;-84
2023/08/18 07:50:19;;;;;;;14.38;7.20;;;21.80;91.70;;;;;;4965549;28;20019;-85
2023/08/18 07:52:45;;;;;;;14.43;7.32;;;21.80;91.70;;;;;;4959837;28;20496;-82
2023/08/18 07:55:11;;;;;;;13.80;6.93;;;21.80;91.80;;;;;;4952721;28;20419;-85
2023/08/18 07:57:37;;;;;;;13.60;7.03;;;22.20;92.90;;;;;;4963594;28;20039;-84
2023/08/18 08:00:13;;;;;;;13.77;6.95;;;21.90;91.90;;;;;;4960953;28;20027;-84
2023/08/18 08:02:40;;;;;;;13.50;7.03;;;21.90;91.90;;;;;;4966440;28;20358;-82
2023/08/18 08:05:06;;;;;;;13.70;6.40;;;21.90;91.90;;;;;;4961811;28;20199;-84
2023/08/18 08:07:33;;;;;;;13.17;7.40;;;21.90;91.80;;;;;;4948430;28;20054;-83
2023/08/18 08:10:03;;;;;;;15.00;7.30;;;22.00;91.90;;;;;;4969920;28;20518;-85
2023/08/18 08:12:34;;;;;;;15.07;7.30;;;22.00;91.90;;;;;;4959665;28;20022;-82
2023/08/18 08:15:01;;;;;;;13.52;7.13;;;22.10;91.90;;;;;;4969291;28;20026;-80
2023/08/18 08:17:29;;;;;;;16.77;7.60;;;22.10;92.00;;;;;;4981078;28;20454;-80
2023/08/18 08:19:56;;;;;;;15.37;7.23;;;22.20;92.00;;;;;;4969979;28;20035;-80
2023/08/18 08:22:23;;;;;;;16.08;7.40;;;22.20;92.00;;;;;;4969023;28;20496;-81
2023/08/18 08:24:50;;;;;;;17.25;7.85;;;22.20;92.00;;;;;;4966400;28;20054;-80
2023/08/18 08:27:17;;;;;;;16.92;7.78;;;22.20;92.00;;;;;;4969144;28;20037;-81
2023/08/18 08:29:43;;;;;;;15.27;7.63;;;22.30;92.10;;;;;;4969376;28;20125;-80
2023/08/18 08:32:09;;;;;;;15.27;8.27;;;22.30;92.10;;;;;;4971922;28;20073;-80
2023/08/18 08:34:38;;;;;;;14.98;8.07;;;22.40;92.10;;;;;;4951773;28;20399;-79
2023/08/18 08:37:04;;;;;;;16.05;8.32;;;22.40;92.20;;;;;;4962991;28;20109;-79
2023/08/18 08:39:29;;;;;;;18.23;8.33;;;22.50;92.10;;;;;;4960367;28;20182;-82
2023/08/18 08:41:55;;;;;;;15.70;8.10;;;22.50;92.10;;;;;;4969583;28;20050;-80
2023/08/18 08:44:21;;;;;;;18.27;8.80;;;22.60;92.00;;;;;;4973617;28;20037;-81
2023/08/18 08:46:47;;;;;;;15.02;7.60;;;22.60;92.10;;;;;;4972173;28;20627;-80
2023/08/18 08:49:15;;;;;;;17.25;8.23;;;22.70;92.10;;;;;;4955216;28;20365;-80
2023/08/18 08:51:46;;;;;;;14.80;7.50;;;22.70;92.10;;;;;;4951994;28;20019;-79
2023/08/18 08:54:16;;;;;;;14.90;7.75;;;22.70;92.10;;;;;;4971943;28;20392;-79
2023/08/18 08:56:43;;;;;;;14.63;7.13;;;22.80;92.20;;;;;;4958063;28;20100;-79
2023/08/18 08:59:10;;;;;;;13.52;6.93;;;22.80;92.30;;;;;;4970022;28;20061;-80
2023/08/18 09:01:36;;;;;;;12.52;6.78;;;22.90;92.40;;;;;;4970254;28;20381;-79
2023/08/18 09:04:04;;;;;;;16.43;7.40;;;23.00;92.40;;;;;;4971309;28;20376;-80
2023/08/18 09:06:30;;;;;;;14.40;6.90;;;23.10;92.30;;;;;;4965798;28;20026;-81
2023/08/18 09:08:56;;;;;;;14.50;7.17;;;23.10;92.30;;;;;;4968435;28;20053;-80
2023/08/18 09:11:39;;;;;;;14.27;7.80;;;23.20;92.20;;;;;;4965987;28;20622;-81
2023/08/18 09:14:04;;;;;;;11.52;6.45;;;23.30;92.10;;;;;;4971808;28;20027;-79
2023/08/18 09:16:31;;;;;;;13.23;6.88;;;23.30;92.10;;;;;;4963533;28;20047;-82
2023/08/18 09:18:57;;;;;;;12.20;6.13;;;23.30;92.10;;;;;;4969515;28;20023;-79
2023/08/18 09:21:23;;;;;;;13.05;6.68;;;23.40;92.10;;;;;;4968372;28;20034;-83
2023/08/18 09:23:55;;;;;;;11.02;6.03;;;23.40;92.00;;;;;;4960676;28;20095;-83
2023/08/18 09:26:21;;;;;;;11.68;6.10;;;23.50;92.00;;;;;;4971231;28;20019;-84
2023/08/18 09:28:47;;;;;;;13.17;6.57;;;23.50;92.00;;;;;;4963537;28;20035;-83
2023/08/18 09:31:13;;;;;;;11.88;6.38;;;23.50;92.00;;;;;;4952994;28;20081;-83
2023/08/18 09:33:39;;;;;;;13.43;6.97;;;23.60;92.00;;;;;;4965339;28;20340;-82
2023/08/18 09:36:05;;;;;;;13.67;7.00;;;23.60;91.90;;;;;;4967737;28;20030;-83
2023/08/18 09:38:43;;;;;;;13.40;6.50;;;23.60;91.90;;;;;;4965537;28;20255;-82
2023/08/18 09:41:10;;;;;;;13.35;6.88;;;23.70;91.80;;;;;;4973837;28;20055;-83
2023/08/18 09:43:41;;;;;;;15.07;6.85;;;23.80;92.00;;;;;;4960211;28;21393;-83
2023/08/18 09:46:08;;;;;;;14.80;6.53;;;23.80;91.90;;;;;;4960532;28;20045;-82
2023/08/18 09:48:35;;;;;;;15.32;7.47;;;23.80;92.00;;;;;;4956270;28;20388;-82
2023/08/18 09:51:05;;;;;;;12.73;6.53;;;23.80;92.00;;;;;;4965320;28;20054;-82
2023/08/18 09:53:32;;;;;;;14.18;7.22;;;23.90;91.90;;;;;;4966352;28;20043;-82
2023/08/18 09:56:13;;;;;;;12.57;7.30;;;24.00;91.90;;;;;;4963232;28;20089;-82
2023/08/18 09:59:02;;;;;;;14.07;6.77;;;24.00;91.90;;;;;;4966921;28;20030;-82
2023/08/18 10:01:30;;;;;;;14.85;7.10;;;24.10;92.00;;;;;;4969362;28;20526;-82
2023/08/18 10:03:59;;;;;;;15.60;7.55;;;24.20;92.00;;;;;;4963625;28;20057;-83
2023/08/18 10:06:26;;;;;;;13.95;7.45;;;24.20;92.00;;;;;;4966703;28;20027;-82
2023/08/18 10:08:53;;;;;;;14.00;7.18;;;24.30;92.10;;;;;;4950349;28;20622;-83
2023/08/18 10:11:19;;;;;;;15.47;7.53;;;24.40;92.10;;;;;;4949725;28;20041;-83
2023/08/18 10:13:47;;;;;;;15.02;7.68;;;24.50;92.10;;;;;;4970794;28;20035;-83
2023/08/18 10:16:13;;;;;;;14.77;7.32;;;24.60;92.10;;;;;;4969087;28;20030;-82
2023/08/18 10:18:39;;;;;;;17.40;8.38;;;24.70;92.10;;;;;;4970956;28;20062;-83
2023/08/18 10:21:04;;;;;;;13.90;7.53;;;24.70;92.00;;;;;;4974064;28;20066;-81
2023/08/18 10:23:31;;;;;;;15.18;7.70;;;24.80;92.00;;;;;;4955552;28;20034;-82
2023/08/18 10:25:57;;;;;;;16.60;7.95;;;24.90;91.90;;;;;;4982342;28;20130;-82
2023/08/18 10:28:28;;;;;;;16.45;7.75;;;25.00;91.90;;;;;;4966656;28;20028;-82
2023/08/18 10:31:08;;;;;;;13.37;7.53;;;25.10;91.80;;;;;;4957113;28;20018;-82
2023/08/18 10:33:38;;;;;;;14.35;7.38;;;25.20;92.10;;;;;;4968104;28;20031;-81
2023/08/18 10:36:05;;;;;;;14.20;7.30;;;25.40;92.10;;;;;;4962721;28;20033;-80
2023/08/18 10:38:33;;;;;;;16.00;7.43;;;25.50;92.30;;;;;;4952663;28;20023;-81
2023/08/18 10:40:59;;;;;;;14.63;7.18;;;25.70;92.20;;;;;;4963383;28;20034;-80
2023/08/18 10:43:30;;;;;;;14.83;8.20;;;25.80;92.20;;;;;;4942724;28;20065;-80
2023/08/18 10:46:00;;;;;;;14.02;7.70;;;25.90;91.90;;;;;;4923618;28;20057;-80
2023/08/18 10:48:33;;;;;;;14.68;7.63;;;26.10;91.60;;;;;;4958627;28;20034;-81
2023/08/18 10:51:03;;;;;;;14.95;7.50;;;26.20;92.00;;;;;;4952366;28;20081;-80
2023/08/18 10:53:37;;;;;;;16.10;8.23;;;26.40;92.70;;;;;;4956737;28;20671;-82
2023/08/18 10:56:04;;;;;;;14.10;7.68;;;26.70;92.30;;;;;;4959681;28;20026;-82
2023/08/18 10:58:31;;;;;;;15.45;8.68;;;27.00;93.00;;;;;;4945911;28;20167;-80
2023/08/18 11:00:57;;;;;;;14.00;7.70;;;27.20;93.00;;;;;;4945672;28;20334;-82
2023/08/18 11:03:24;;;;;;;15.00;8.07;;;27.50;92.80;;;;;;4960501;28;20599;-81
2023/08/18 11:05:51;;;;;;;16.03;9.07;;;27.70;92.50;;;;;;4971373;28;20550;-81
2023/08/18 11:08:17;;;;;;;14.77;8.50;;;27.90;92.10;;;;;;4979453;28;20042;-81
2023/08/18 11:10:44;;;;;;;15.38;8.50;;;28.10;91.90;;;;;;4975589;28;20030;-81
2023/08/18 11:13:31;;;;;;;14.75;7.97;;;28.30;91.80;;;;;;4950538;28;20022;-81
2023/08/18 11:15:57;;;;;;;13.82;8.00;;;28.50;90.80;;;;;;4966375;28;20121;-80
2023/08/18 11:18:23;;;;;;;12.93;7.90;;;28.70;92.10;;;;;;4963296;28;20027;-80
2023/08/18 11:20:51;;;;;;;13.98;8.63;;;28.90;91.80;;;;;;4969934;28;20026;-81
2023/08/18 11:23:18;;;;;;;15.45;8.88;;;29.10;91.40;;;;;;4964749;28;20373;-81
2023/08/18 11:25:45;;;;;;;14.40;8.73;;;29.30;91.50;;;;;;4948580;28;20022;-80
2023/08/18 11:28:12;;;;;;;13.93;9.00;;;29.50;91.30;;;;;;4966384;28;20438;-82
2023/08/18 11:30:38;;;;;;;15.07;9.37;;;29.70;91.00;;;;;;4963406;28;21284;-83
2023/08/18 11:33:04;;;;;;;15.15;9.48;;;29.90;91.20;;;;;;4948449;28;20340;-81
2023/08/18 11:35:31;;;;;;;14.88;9.38;;;30.20;91.20;;;;;;4967576;28;20030;-81
2023/08/18 11:37:56;;;;;;;15.73;9.82;;;30.40;91.20;;;;;;4969981;28;20465;-81
2023/08/18 11:40:23;;;;;;;14.33;9.40;;;30.70;91.10;;;;;;4968712;28;20101;-84
2023/08/18 11:42:51;;;;;;;13.73;8.98;;;31.00;91.00;;;;;;4979367;28;20687;-82
2023/08/18 11:45:19;;;;;;;14.40;9.20;;;31.20;90.70;;;;;;4962193;28;20477;-82
2023/08/18 11:47:55;;;;;;;14.70;9.07;;;31.50;90.20;;;;;;4953125;28;20069;-82
2023/08/18 11:50:29;;;;;;;13.50;8.77;;;31.70;89.40;;;;;;4954562;28;20600;-82
2023/08/18 11:52:55;;;;;;;14.45;9.00;;;32.00;87.00;;;;;;4963725;28;20034;-81
2023/08/18 11:55:43;;;;;;;15.03;9.60;;;32.20;89.00;;;;;;4972197;28;20228;-82
2023/08/18 11:58:15;;;;;;;14.07;9.13;;;32.40;85.00;;;;;;4948750;28;20032;-83
2023/08/18 12:00:42;;;;;;;13.55;9.25;;;32.60;86.40;;;;;;4970339;28;20031;-82
2023/08/18 12:03:21;;;;;;;15.85;9.70;;;32.80;88.00;;;;;;4948069;28;20403;-82
2023/08/18 12:05:46;;;;;;;12.68;9.13;;;33.20;84.30;;;;;;4979316;28;20054;-82
2023/08/18 12:08:12;;;;;;;15.13;9.23;;;33.40;87.20;;;;;;4970946;28;20073;-83
2023/08/18 12:10:38;;;;;;;14.90;9.60;;;33.60;86.20;;;;;;4973739;28;20486;-82
2023/08/18 12:13:04;;;;;;;15.23;10.18;;;33.90;85.70;;;;;;4969541;28;20311;-82
2023/08/18 12:15:30;;;;;;;14.70;9.73;;;34.10;85.10;;;;;;4971716;28;20058;-83
2023/08/18 12:17:56;;;;;;;15.70;10.90;;;34.30;84.10;;;;;;4956850;28;20097;-82
2023/08/18 12:20:24;;;;;;;13.52;9.23;;;34.50;83.00;;;;;;4971159;28;20019;-82
2023/08/18 12:22:51;;;;;;;16.63;10.53;;;34.60;81.90;;;;;;4967243;28;20134;-82
2023/08/18 12:25:18;;;;;;;15.32;10.57;;;34.60;80.70;;;;;;4966130;28;20500;-83
2023/08/18 12:27:48;;;;;;;17.60;11.23;;;34.80;80.00;;;;;;4972272;28;20396;-81
2023/08/18 12:30:15;;;;;;;15.15;9.63;;;34.70;78.50;;;;;;4964701;28;20027;-82
2023/08/18 12:32:44;;;;;;;16.30;9.95;;;34.70;78.30;;;;;;4971854;28;20027;-83
2023/08/18 12:35:10;;;;;;;14.33;9.83;;;34.70;77.80;;;;;;4965516;28;20035;-82
2023/08/18 12:37:37;;;;;;;14.77;9.75;;;34.70;77.60;;;;;;4953990;28;20031;-82